Date,TemperatureHighF,TemperatureAvgF,TemperatureLowF,DewpointHighF,DewpointAvgF,DewpointLowF,HumidityHigh,HumidityAvg,HumidityLow,PressureMaxIn,PressureMinIn,WindSpeedMaxMPH,WindSpeedAvgMPH,GustSpeedMaxMPH,PrecipitationSumIn
2013-1-1,36,29,23,32,22,16,90,72,64,0.00,40.00,9,4,22,3.97
2013-1-2,26,24,23,18,16,16,68,68,68,0.00,40.00,3,3,10,0.00
2013-1-3,24,22,19,16,13,10,76,65,62,0.00,40.00,10,7,12,0.00
2013-1-4,35,32,28,19,18,14,67,54,46,0.00,40.00,17,14,22,1.14
2013-1-5,36,32,28,27,25,21,80,71,64,0.00,40.00,11,6,15,0.00
2013-1-6,40,36,33,34,32,28,91,83,72,0.00,40.00,12,7,17,14.17
2013-1-7,38,34,30,32,27,23,86,74,56,0.00,40.00,12,5,14,0.00
2013-1-8,42,33,25,27,24,21,85,68,49,0.00,40.00,9,5,14,0.00
2013-1-9,49,45,39,36,30,25,76,57,40,0.00,40.00,22,13,28,0.00
2013-1-10,44,37,28,32,29,25,90,72,49,0.00,40.00,8,2,28,0.00
2013-1-11,54,48,41,50,38,23,90,72,45,0.00,40.00,12,7,17,0.00
2013-1-12,63,55,47,54,50,43,94,85,72,0.00,40.00,11,5,14,13.59
2013-1-13,67,55,42,57,49,39,94,84,69,0.00,40.00,13,5,19,5.67
2013-1-14,42,32,27,39,26,21,94,77,64,0.00,40.00,16,6,21,0.00
2013-1-15,32,29,28,25,21,19,76,68,56,0.00,40.00,6,2,8,0.00
2013-1-16,37,33,29,30,24,19,80,66,50,0.00,40.00,15,4,26,0.00
2013-1-17,38,34,26,32,26,18,81,70,58,0.00,40.00,20,6,26,5.67
2013-1-18,34,26,19,19,13,5,71,56,45,0.00,40.00,18,8,22,2.83
2013-1-19,52,44,34,28,22,16,46,40,33,0.00,40.00,19,13,22,0.00
2013-1-20,51,30,22,32,18,10,68,58,41,0.00,40.00,34,14,50,5.67
2013-1-21,25,20,13,19,14,3,90,77,55,0.00,40.00,17,7,26,12.46
2013-1-22,14,9,7,9,2,-2,88,70,50,0.00,40.00,19,10,26,10.20
2013-1-23,15,12,9,12,9,7,89,85,75,0.00,40.00,6,2,12,15.31
2013-1-24,20,17,11,14,9,3,89,68,46,0.00,40.00,11,3,4,1.14
2013-1-25,20,14,7,16,10,3,85,78,71,0.00,40.00,6,2,10,2.83
2013-1-26,31,23,16,27,19,14,90,83,72,0.00,40.00,5,2,8,17.58
2013-1-27,32,25,17,25,17,14,89,70,53,0.00,40.00,9,3,12,2.83
2013-1-28,49,40,27,46,37,23,94,91,84,0.00,40.00,13,7,19,20.98
2013-1-29,60,49,38,54,46,36,95,90,69,0.00,40.00,12,4,17,31.71
2013-1-30,65,59,41,55,50,34,93,76,63,0.00,40.00,29,11,35,8.50
2013-1-31,41,25,20,36,20,14,91,80,64,0.00,40.00,24,16,35,8.50
2013-2-1,20,17,14,16,11,5,88,73,56,0.00,40.00,17,10,22,3.97
2013-2-2,23,20,16,21,17,12,91,85,78,0.00,40.00,9,4,14,17.00
2013-2-3,22,19,18,21,16,12,91,81,69,0.00,40.00,14,8,15,13.03
2013-2-4,27,22,16,23,17,9,90,79,60,0.00,40.00,12,4,15,15.31
2013-2-5,31,25,21,23,21,18,91,81,59,0.00,40.00,5,2,12,3.97
2013-2-6,32,26,15,30,18,10,89,71,47,0.00,40.00,9,3,14,0.00
2013-2-7,45,31,15,30,19,10,82,60,37,0.00,40.00,11,4,15,0.00
2013-2-8,39,31,22,36,26,16,94,83,66,0.00,40.00,17,8,21,14.17
2013-2-9,33,24,18,21,19,14,85,76,54,0.00,40.00,9,3,21,0.00
2013-2-10,48,34,17,25,17,12,85,52,24,0.00,40.00,13,6,17,0.00
2013-2-11,53,41,34,45,32,23,90,71,41,0.00,40.00,25,14,34,5.67
2013-2-12,36,32,27,28,26,21,82,73,68,0.00,40.00,20,10,34,3.97
2013-2-13,36,31,25,28,26,23,88,79,62,0.00,40.00,6,2,26,0.00
2013-2-14,41,32,24,36,28,21,89,83,66,0.00,40.00,19,7,21,0.00
2013-2-15,39,32,26,30,24,18,78,69,55,0.00,40.00,23,8,30,1.14
2013-2-16,29,25,21,23,15,5,89,65,37,0.00,40.00,7,2,24,2.28
2013-2-17,23,19,15,19,14,9,91,78,64,0.00,40.00,9,3,14,3.42
2013-2-18,43,26,8,28,14,3,80,61,42,0.00,40.00,13,7,19,0.00
2013-2-19,48,34,20,37,28,16,90,80,51,0.00,40.00,20,13,24,15.86
2013-2-20,24,20,17,19,15,10,89,77,63,0.00,40.00,17,9,24,9.64
2013-2-21,24,21,19,19,16,14,80,75,69,0.00,40.00,7,4,19,5.66
2013-2-22,38,30,17,34,25,12,89,81,64,0.00,40.00,14,7,17,0.00
2013-2-23,39,34,30,34,28,23,89,76,54,0.00,40.00,12,4,17,0.00
2013-2-24,33,30,27,27,24,21,84,76,69,0.00,40.00,12,6,17,5.67
2013-2-25,40,30,21,32,23,19,93,74,47,0.00,40.00,7,3,17,0.00
2013-2-26,42,34,28,34,25,21,89,68,51,0.00,40.00,12,7,21,2.83
2013-2-27,44,39,34,41,34,32,93,87,76,0.00,40.00,10,4,14,5.67
2013-2-28,37,34,32,34,31,28,93,88,81,0.00,40.00,8,4,14,12.47
2013-3-1,34,29,25,30,25,21,88,81,76,0.00,40.00,9,5,12,0.00
2013-3-2,29,26,22,27,22,19,88,83,80,0.00,40.00,8,4,14,1.14
2013-3-3,29,26,23,27,22,16,91,82,68,0.00,40.00,9,4,14,10.81
2013-3-4,33,26,21,23,19,16,80,72,59,0.00,40.00,10,3,14,0.00
2013-3-5,36,28,20,30,23,16,89,80,58,0.00,40.00,9,4,14,0.00
2013-3-6,42,34,30,32,28,25,86,78,59,0.00,40.00,11,6,14,0.00
2013-3-7,38,34,31,34,31,27,90,89,84,0.00,40.00,7,2,14,5.67
2013-3-8,40,34,30,32,30,27,89,83,69,0.00,40.00,7,4,12,0.00
2013-3-9,54,38,24,32,29,23,91,70,41,0.00,40.00,7,2,12,0.00
2013-3-10,67,57,48,34,30,23,44,36,28,0.00,40.00,10,7,14,0.00
2013-3-11,61,56,44,46,36,30,89,52,32,0.00,40.00,16,8,21,5.11
2013-3-12,44,38,34,37,31,25,84,76,68,0.00,40.00,15,9,21,2.83
2013-3-13,37,31,26,30,25,18,91,77,58,0.00,40.00,17,8,24,5.11
2013-3-14,34,29,26,23,17,14,67,58,50,0.00,40.00,11,6,24,0.00
2013-3-15,37,34,28,34,28,19,93,77,64,0.00,40.00,15,5,22,7.36
2013-3-16,36,30,28,32,29,23,95,89,77,0.00,40.00,11,4,22,22.66
2013-3-17,34,29,25,28,22,16,88,70,53,0.00,40.00,10,4,14,0.00
2013-3-18,40,32,23,36,27,16,91,79,62,0.00,40.00,15,9,17,0.00
2013-3-19,39,32,26,36,25,19,91,76,62,0.00,40.00,20,12,24,8.50
2013-3-20,32,29,25,27,20,14,90,66,49,0.00,40.00,16,8,24,1.14
2013-3-21,30,24,19,28,21,12,93,82,59,0.00,40.00,14,8,19,10.22
2013-3-22,32,29,25,28,23,19,94,75,59,0.00,40.00,12,5,19,2.28
2013-3-23,38,31,23,28,23,19,86,71,47,0.00,40.00,6,2,15,0.00
2013-3-24,37,30,19,27,23,16,89,74,51,0.00,40.00,12,5,17,0.00
2013-3-25,37,34,30,32,30,25,94,86,73,0.00,40.00,11,7,17,30.03
2013-3-26,41,36,29,32,31,27,90,80,68,0.00,40.00,11,4,14,2.83
2013-3-27,43,36,33,34,30,27,94,78,56,0.00,40.00,14,7,17,11.33
2013-3-28,42,37,33,34,32,30,94,83,69,0.00,40.00,9,3,17,3.97
2013-3-29,49,42,36,34,28,21,77,58,36,0.00,40.00,8,3,12,0.00
2013-3-30,54,42,29,28,24,18,81,52,24,0.00,40.00,9,2,12,0.00
2013-3-31,55,48,42,45,32,-100,85,56,38,0.00,40.00,12,5,19,1.14
2013-4-1,50,36,31,41,24,12,86,61,36,0.00,40.00,15,7,21,0.00
2013-4-2,37,32,27,23,16,10,73,51,34,0.00,40.00,15,7,21,1.14
2013-4-3,36,31,27,25,17,12,67,52,41,0.00,40.00,13,4,21,0.00
2013-4-4,56,36,25,18,14,5,67,44,14,0.00,40.00,9,4,17,0.00
2013-4-8,74,69,62,52,45,39,58,44,36,0.00,40.00,18,11,21,0.00
2013-4-9,76,57,43,52,43,37,86,65,38,0.00,40.00,17,5,26,0.00
2013-4-10,55,47,40,52,44,37,95,92,73,0.00,40.00,15,4,24,8.50
2013-4-11,43,40,37,39,37,34,95,93,89,0.00,40.00,17,7,24,10.20
2013-4-12,54,43,39,52,37,32,93,83,64,0.00,40.00,24,8,28,2.83
2013-4-13,44,41,37,37,33,28,89,75,58,0.00,40.00,16,9,28,2.28
2013-4-14,51,43,34,36,32,28,80,66,51,0.00,40.00,9,3,12,0.00
2013-4-15,71,61,47,50,41,32,66,50,36,0.00,40.00,13,7,15,0.00
2013-4-16,65,57,49,57,49,45,93,79,62,0.00,40.00,12,6,17,7.36
2013-4-17,56,50,42,50,36,27,93,62,34,0.00,40.00,11,6,14,0.00
2013-4-18,85,70,46,59,52,36,80,58,31,0.00,40.00,17,10,24,0.00
2013-4-19,73,55,41,59,43,27,91,66,50,0.00,40.00,24,12,34,3.97
2013-4-20,42,37,32,32,26,19,91,63,44,0.00,40.00,21,10,24,2.83
2013-4-21,44,38,29,30,26,21,88,63,38,0.00,40.00,14,4,17,0.00
2013-4-22,65,51,36,36,29,23,73,44,27,0.00,40.00,10,5,14,0.00
2013-4-23,72,59,43,37,32,25,60,38,24,0.00,40.00,11,7,14,0.00
2013-4-24,67,49,36,52,40,32,94,79,33,0.00,40.00,14,7,19,14.17
2013-4-25,53,42,34,39,33,27,93,74,36,0.00,40.00,14,5,17,1.14
2013-4-26,55,45,33,36,31,27,93,61,32,0.00,40.00,9,2,12,0.00
2013-4-27,68,54,39,36,32,28,76,47,24,0.00,40.00,9,3,14,0.00
2013-4-28,63,58,54,55,44,-100,93,67,36,0.00,40.00,12,7,15,5.11
2013-4-29,63,58,53,57,52,48,91,85,76,0.00,40.00,11,4,14,2.28
2013-4-30,75,65,54,55,51,46,93,67,38,0.00,40.00,11,5,15,0.00
2013-5-1,80,68,57,52,48,43,76,54,29,0.00,40.00,11,6,14,0.00
2013-5-2,79,68,58,46,35,30,47,31,20,0.00,40.00,9,6,12,0.00
2013-5-3,79,69,58,43,35,30,45,31,20,0.00,40.00,14,8,17,0.00
2013-5-4,75,64,54,43,36,27,59,38,18,0.00,40.00,11,7,14,0.00
2013-5-5,75,65,51,43,38,25,71,41,15,0.00,40.00,12,5,17,0.00
2013-5-6,74,63,53,46,35,25,56,38,23,0.00,40.00,11,6,14,0.00
2013-5-7,74,66,56,54,50,46,80,61,41,0.00,40.00,11,4,14,0.00
2013-5-8,72,64,57,57,53,50,91,70,47,0.00,40.00,8,2,10,2.28
2013-5-9,76,64,55,57,50,36,94,67,25,0.00,40.00,5,2,8,0.00
2013-5-10,76,63,54,61,51,-100,91,71,49,0.00,40.00,13,5,22,3.97
2013-5-11,55,48,42,48,43,39,94,86,73,0.00,40.00,12,5,15,0.00
2013-5-12,50,43,36,43,30,-100,89,63,41,0.00,40.00,22,10,26,0.00
2013-5-13,50,42,37,32,27,21,81,54,38,0.00,40.00,9,4,14,0.00
2013-5-14,57,47,33,39,33,25,84,60,41,0.00,40.00,15,6,19,0.00
2013-5-15,82,66,51,57,46,36,77,52,31,0.00,40.00,21,8,26,4.53
2013-5-16,78,61,51,54,25,-100,89,51,22,0.00,40.00,13,3,15,0.00
2013-5-17,67,60,52,48,38,-100,71,54,41,0.00,40.00,11,4,14,0.00
2013-5-18,74,65,55,52,45,39,68,50,33,0.00,40.00,11,4,14,0.00
2013-5-19,85,72,62,63,58,50,82,64,44,0.00,40.00,9,5,12,0.00
2013-5-20,89,76,64,66,62,59,86,65,42,0.00,40.00,11,5,14,0.00
2013-5-21,87,77,69,70,64,57,88,69,40,0.00,40.00,13,6,19,0.00
2013-5-22,86,77,65,64,59,52,86,58,36,0.00,40.00,16,7,19,0.00
2013-5-23,71,61,44,64,56,41,91,86,67,0.00,40.00,12,5,26,1.14
2013-5-24,47,43,39,43,34,32,91,73,58,0.00,40.00,13,6,17,0.00
2013-5-25,58,48,36,41,35,28,90,65,36,0.00,40.00,9,4,14,0.00
2013-5-26,64,52,37,43,36,30,91,60,28,0.00,40.00,7,3,12,0.00
2013-5-27,68,54,37,52,39,30,90,64,25,0.00,40.00,8,3,12,3.97
2013-5-28,78,64,51,68,58,46,95,85,64,0.00,40.00,11,5,14,8.50
2013-5-29,86,76,66,66,62,57,94,64,42,0.00,40.00,14,6,17,0.00
2013-5-30,87,76,67,70,63,57,94,67,38,0.00,40.00,9,3,12,0.00
2013-5-31,88,75,67,68,63,59,91,71,41,0.00,40.00,14,4,24,2.83
2013-6-1,84,73,66,68,64,63,94,77,55,0.00,40.00,15,7,24,1.14
2013-6-2,75,69,60,66,58,-100,94,74,50,0.00,40.00,22,8,26,0.00
2013-6-3,62,56,49,54,43,34,86,67,45,0.00,40.00,8,4,12,4.53
2013-6-4,65,56,46,48,41,34,89,63,36,0.00,40.00,8,2,10,0.00
2013-6-5,72,61,49,52,46,41,88,62,36,0.00,40.00,13,5,17,0.00
2013-6-6,63,59,55,61,55,50,95,90,69,0.00,40.00,7,4,14,12.47
2013-6-7,61,57,54,55,54,52,95,93,84,0.00,40.00,9,4,14,0.00
2013-6-8,70,61,55,55,54,50,94,80,56,0.00,40.00,6,2,8,0.00
2013-6-9,80,66,51,61,54,46,91,69,40,0.00,40.00,7,2,10,0.00
2013-6-10,75,70,65,70,64,57,94,85,58,0.00,40.00,15,4,24,2.28
2013-6-11,74,67,63,64,62,59,95,85,64,0.00,40.00,9,4,14,0.00
2013-6-12,79,69,62,68,62,57,91,80,64,0.00,40.00,6,2,8,2.83
2013-6-13,70,64,59,68,61,55,95,92,77,0.00,40.00,11,4,15,9.09
2013-6-14,70,62,57,59,55,50,94,80,59,0.00,40.00,8,3,12,0.00
2013-6-15,80,66,50,59,51,45,93,65,36,0.00,40.00,9,2,14,0.00
2013-6-16,80,72,66,64,60,54,82,71,59,0.00,40.00,19,8,26,0.00
2013-6-17,84,72,62,66,60,55,91,70,44,0.00,40.00,12,4,19,2.83
2013-6-18,69,64,60,61,55,43,95,76,47,0.00,40.00,14,5,19,0.00
2013-6-19,71,63,52,55,48,39,91,62,36,0.00,40.00,9,3,12,0.00
2013-6-22,89,86,79,68,66,63,66,53,49,0.00,40.00,7,4,12,0.00
2013-6-23,89,85,76,70,65,61,73,53,41,0.00,40.00,11,7,14,0.00
2013-6-24,89,82,73,66,64,63,78,59,47,0.00,40.00,5,2,10,0.00
2013-6-25,89,81,69,70,65,63,91,63,47,0.00,40.00,11,6,17,0.00
2013-6-26,80,71,68,68,65,64,93,86,69,0.00,40.00,8,3,22,0.00
2013-6-27,77,72,70,68,66,64,94,84,69,0.00,40.00,7,2,14,1.14
2013-6-28,75,72,68,68,64,63,93,80,73,0.00,40.00,8,4,10,0.00
2013-7-13,68,68,67,61,60,59,80,79,78,0.00,40.00,2,2,7,0.00
2013-7-14,85,83,82,68,68,68,64,62,59,0.00,40.00,4,3,8,0.00
2013-7-15,82,80,75,75,74,70,86,82,80,0.00,40.00,1,0,2,0.00
2013-7-16,88,84,80,75,74,72,86,72,59,0.00,40.00,2,1,6,0.00
2013-7-17,89,88,86,72,70,68,62,57,54,0.00,40.00,5,4,8,0.00
2013-7-18,85,79,76,75,73,72,88,84,68,0.00,40.00,5,2,8,0.00
2013-7-19,89,80,78,72,70,68,80,74,60,0.00,40.00,7,5,15,0.00
2013-7-20,81,73,67,72,64,-100,94,81,63,0.00,40.00,11,4,14,7.36
2013-7-21,79,70,67,68,66,63,93,89,63,0.00,40.00,3,0,4,0.00
2013-7-22,81,75,69,72,66,61,93,78,66,0.00,40.00,6,1,6,1.14
2013-7-23,78,70,66,68,65,61,94,88,63,0.00,40.00,8,2,14,0.00
2013-7-24,69,66,58,59,52,48,86,64,54,0.00,40.00,9,5,14,0.00
2013-7-25,75,69,56,54,49,45,88,52,40,0.00,40.00,9,5,14,0.00
2013-7-26,78,66,55,61,55,48,90,70,38,0.00,40.00,4,2,10,0.00
2013-7-27,67,64,63,63,57,55,88,81,78,0.00,40.00,6,1,6,0.00
2013-7-28,68,64,61,57,52,45,89,73,46,0.00,40.00,8,4,17,0.00
2013-7-29,72,67,60,57,52,48,89,62,47,0.00,40.00,12,8,17,0.00
2013-7-30,75,66,56,61,56,54,93,75,55,0.00,40.00,5,2,10,0.00
2013-7-31,81,71,60,64,59,55,88,69,47,0.00,40.00,6,2,8,0.00
2013-8-1,76,71,65,66,62,61,93,76,63,0.00,40.00,6,3,12,0.00
2013-8-2,76,68,62,63,59,55,93,77,50,0.00,40.00,9,5,15,0.00
2013-12-8,28,26,23,18,16,14,72,63,56,0.00,40.00,7,4,12,0.00
2013-12-9,36,31,27,32,25,19,93,75,67,0.00,40.00,14,9,26,0.00
2013-12-10,29,27,25,18,11,5,69,49,36,0.00,40.00,19,12,26,1.14
2013-12-11,24,23,21,19,17,16,80,74,67,0.00,40.00,12,10,24,10.20
2013-12-12,20,16,14,12,10,7,85,73,64,0.00,40.00,12,7,15,10.78
2013-12-13,26,22,19,21,15,9,77,68,59,0.00,40.00,8,5,21,0.00
2013-12-14,32,24,26,32,3,-100,95,74,85,0.00,40.00,5,3,17,7.36
2013-12-16,13,13,13,10,10,10,85,85,85,0.00,40.00,2,2,2,0.00
2013-12-17,26,22,18,25,20,14,88,84,80,0.00,40.00,6,4,15,4.53
2013-12-18,27,27,27,25,25,25,89,89,89,0.00,40.00,9,9,15,0.00
2013-12-19,27,27,27,19,19,19,68,68,68,0.00,40.00,9,9,15,0.00
2013-12-20,55,47,43,52,40,32,91,78,66,0.00,40.00,9,7,14,4.53
2013-12-21,54,43,38,50,41,36,94,93,90,0.00,40.00,9,7,14,0.00
2013-12-22,53,41,38,48,37,34,90,89,86,0.00,40.00,4,4,19,0.00
2013-12-26,27,27,27,21,21,21,75,75,75,0.00,40.00,2,2,22,0.00
2013-12-27,38,32,25,30,24,18,72,72,72,0.00,40.00,5,4,22,0.00
2013-12-28,42,30,38,30,-3,-100,72,50,60,0.00,40.00,8,6,14,0.00
2013-12-29,43,43,42,37,35,30,80,75,60,0.00,40.00,7,6,14,0.00
2013-12-30,28,28,28,27,27,27,91,91,91,0.00,40.00,5,5,14,0.00
2013-12-31,21,20,20,19,17,14,91,86,78,0.00,40.00,13,6,26,1.14
2014-1-1,24,21,20,23,18,16,93,85,82,0.00,40.00,5,4,10,0.00